createdAt,value
2023-04-14T00:01:15.167Z,7.20
2023-04-14T00:02:15.222Z,7.18
2023-04-14T00:03:15.476Z,7.16
2023-04-14T00:05:15.242Z,7.15
2023-04-14T00:06:15.202Z,7.12
2023-04-14T00:07:15.184Z,7.15
2023-04-14T00:08:15.209Z,7.17
2023-04-14T00:09:15.222Z,7.18
2023-04-14T00:10:15.214Z,7.19
2023-04-14T00:11:15.260Z,7.18
2023-04-14T00:15:15.229Z,7.19
2023-04-14T00:17:15.232Z,7.20
2023-04-14T00:18:15.202Z,7.18
2023-04-14T00:19:15.259Z,7.16
2023-04-14T00:20:15.226Z,7.14
2023-04-14T00:21:15.280Z,7.16
2023-04-14T00:22:17.471Z,7.18
2023-04-14T00:23:15.208Z,7.20
2023-04-14T00:24:15.253Z,7.19
2023-04-14T00:25:15.260Z,7.22
2023-04-14T00:29:15.274Z,7.23
2023-04-14T00:32:15.280Z,7.24
2023-04-14T00:34:15.283Z,7.25
2023-04-14T00:35:15.289Z,7.24
2023-04-14T00:36:15.247Z,7.22
2023-04-14T00:37:15.250Z,7.19
2023-04-14T00:38:15.275Z,7.17
2023-04-14T00:39:15.269Z,7.16
2023-04-14T00:42:15.318Z,7.12
2023-04-14T00:43:15.248Z,7.11
2023-04-14T00:44:15.250Z,7.09
2023-04-14T00:46:15.341Z,7.07
2023-04-14T00:47:15.332Z,7.06
2023-04-14T00:48:15.306Z,7.05
2023-04-14T00:49:15.307Z,7.06
2023-04-14T00:50:15.337Z,7.04
2023-04-14T00:51:15.273Z,7.03
2023-04-14T00:52:15.317Z,7.01
2023-04-14T00:53:15.353Z,7.00
2023-04-14T00:54:15.318Z,6.99
2023-04-14T00:55:15.341Z,6.98
2023-04-14T00:56:15.316Z,6.97
2023-04-14T00:57:15.324Z,6.92
2023-04-14T00:58:15.329Z,6.90
2023-04-14T00:59:17.694Z,6.89
2023-04-14T01:00:15.295Z,6.87
2023-04-14T01:01:15.396Z,6.88
2023-04-14T01:02:15.406Z,6.86
2023-04-14T01:03:15.487Z,6.82
2023-04-14T01:05:15.661Z,6.79
2023-04-14T01:06:15.373Z,6.81
2023-04-14T01:07:15.335Z,6.84
2023-04-14T01:08:15.325Z,6.83
2023-04-14T01:11:15.366Z,6.80
2023-04-14T01:12:15.342Z,6.78
2023-04-14T01:14:15.396Z,6.79
2023-04-14T01:15:15.359Z,6.81
2023-04-14T01:16:15.470Z,6.83
2023-04-14T01:17:15.429Z,6.84
2023-04-14T01:18:15.340Z,6.86
2023-04-14T01:19:15.381Z,6.91
2023-04-14T01:20:15.355Z,6.94
2023-04-14T01:21:15.361Z,6.96
2023-04-14T01:22:15.403Z,6.99
2023-04-14T01:23:15.382Z,7.02
2023-04-14T01:24:15.400Z,7.04
2023-04-14T01:25:15.373Z,7.06
2023-04-14T01:28:15.392Z,7.07
2023-04-14T01:29:15.358Z,7.05
2023-04-14T01:30:15.401Z,7.04
2023-04-14T01:31:15.441Z,6.98
2023-04-14T01:32:15.410Z,6.95
2023-04-14T01:33:15.396Z,6.93
2023-04-14T01:34:15.375Z,6.92
2023-04-14T01:35:15.416Z,6.91
2023-04-14T01:36:17.920Z,6.93
2023-04-14T01:37:15.399Z,6.92
2023-04-14T01:38:15.444Z,6.91
2023-04-14T01:39:15.418Z,6.92
2023-04-14T01:41:15.401Z,6.90
2023-04-14T01:42:15.433Z,6.91
2023-04-14T01:43:15.436Z,6.90
2023-04-14T01:44:15.415Z,6.88
2023-04-14T01:46:15.514Z,6.83
2023-04-14T01:47:15.467Z,6.82
2023-04-14T01:48:15.453Z,6.80
2023-04-14T01:50:15.430Z,6.79
2023-04-14T01:51:15.470Z,6.82
2023-04-14T01:52:15.455Z,6.85
2023-04-14T01:53:15.454Z,6.88
2023-04-14T01:55:15.480Z,6.90
2023-04-14T01:56:15.502Z,6.89
2023-04-14T01:58:15.473Z,6.88
2023-04-14T01:59:15.511Z,6.87
2023-04-14T02:00:15.464Z,6.85
2023-04-14T02:01:15.553Z,6.87
2023-04-14T02:02:15.514Z,6.90
2023-04-14T02:04:15.541Z,6.91
2023-04-14T02:05:15.490Z,6.92
2023-04-14T02:06:15.482Z,6.91
2023-04-14T02:08:15.457Z,6.92
2023-04-14T02:09:15.565Z,6.95
2023-04-14T02:10:15.524Z,6.96
2023-04-14T02:12:15.515Z,6.97
2023-04-14T02:13:18.300Z,7.00
2023-04-14T02:14:15.503Z,7.01
2023-04-14T02:15:15.547Z,7.02
2023-04-14T02:16:15.536Z,7.00
2023-04-14T02:17:15.511Z,6.98
2023-04-14T02:19:15.510Z,6.99
2023-04-14T02:20:15.559Z,6.95
2023-04-14T02:21:15.505Z,6.96
2023-04-14T02:23:15.514Z,6.94
2023-04-14T02:25:15.529Z,6.93
2023-04-14T02:26:15.529Z,6.92
2023-04-14T02:27:15.522Z,6.91
2023-04-14T02:28:15.563Z,6.92
2023-04-14T02:30:15.554Z,6.91
2023-04-14T02:31:15.583Z,6.93
2023-04-14T02:32:15.549Z,6.92
2023-04-14T02:33:15.560Z,6.93
2023-04-14T02:35:15.564Z,6.94
2023-04-14T02:36:15.579Z,6.91
2023-04-14T02:37:15.556Z,6.89
2023-04-14T02:38:15.566Z,6.90
2023-04-14T02:39:15.562Z,6.85
2023-04-14T02:40:15.536Z,6.84
2023-04-14T02:41:15.584Z,6.70
2023-04-14T02:42:15.595Z,6.56
2023-04-14T02:43:15.597Z,6.52
2023-04-14T02:44:15.550Z,6.51
2023-04-14T02:45:15.554Z,6.54
2023-04-14T02:46:15.663Z,6.60
2023-04-14T02:47:15.589Z,6.62
2023-04-14T02:48:15.581Z,6.63
2023-04-14T02:49:15.587Z,6.64
2023-04-14T02:50:18.388Z,6.67
2023-04-14T02:51:15.638Z,6.68
2023-04-14T02:52:15.595Z,6.73
2023-04-14T02:53:15.574Z,6.77
2023-04-14T02:54:15.608Z,6.79
2023-04-14T02:55:15.577Z,6.70
2023-04-14T02:56:15.610Z,6.69
2023-04-14T02:57:15.627Z,6.68
2023-04-14T02:58:15.580Z,6.58
2023-04-14T02:59:15.652Z,6.57
2023-04-14T03:00:15.606Z,6.56
2023-04-14T03:01:15.670Z,6.60
2023-04-14T03:02:15.620Z,6.63
2023-04-14T03:03:15.795Z,6.64
2023-04-14T03:04:15.727Z,6.66
2023-04-14T03:05:15.601Z,6.65
2023-04-14T03:06:15.669Z,6.69
2023-04-14T03:07:15.646Z,6.70
2023-04-14T03:09:15.666Z,6.69
2023-04-14T03:11:15.631Z,6.72
2023-04-14T03:12:15.633Z,6.73
2023-04-14T03:13:15.637Z,6.76
2023-04-14T03:15:15.684Z,6.73
2023-04-14T03:16:15.628Z,6.68
2023-04-14T03:17:15.672Z,6.64
2023-04-14T03:18:15.634Z,6.59
2023-04-14T03:19:15.622Z,6.55
2023-04-14T03:20:15.691Z,6.54
2023-04-14T03:22:15.641Z,6.51
2023-04-14T03:23:15.693Z,6.45
2023-04-14T03:24:15.650Z,6.44
2023-04-14T03:25:15.688Z,6.45
2023-04-14T03:26:15.653Z,6.44
2023-04-14T03:27:18.625Z,6.47
2023-04-14T03:28:15.710Z,6.45
2023-04-14T03:30:15.725Z,6.42
2023-04-14T03:32:15.697Z,6.44
2023-04-14T03:33:15.704Z,6.48
2023-04-14T03:34:15.694Z,6.50
2023-04-14T03:35:15.888Z,6.52
2023-04-14T03:36:15.704Z,6.53
2023-04-14T03:37:15.651Z,6.55
2023-04-14T03:38:15.713Z,6.62
2023-04-14T03:39:15.682Z,6.65
2023-04-14T03:40:15.704Z,6.68
2023-04-14T03:41:15.717Z,6.69
2023-04-14T03:42:15.684Z,6.72
2023-04-14T03:43:15.719Z,6.70
2023-04-14T03:44:15.878Z,6.68
2023-04-14T03:45:15.709Z,6.65
2023-04-14T03:46:15.804Z,6.61
2023-04-14T03:47:15.726Z,6.59
2023-04-14T03:48:15.705Z,6.56
2023-04-14T03:50:15.706Z,6.54
2023-04-14T03:51:15.763Z,6.56
2023-04-14T03:52:15.743Z,6.54
2023-04-14T03:53:15.727Z,6.56
2023-04-14T03:58:15.756Z,6.55
2023-04-14T03:59:15.791Z,6.56
2023-04-14T04:00:15.852Z,6.54
2023-04-14T04:01:15.741Z,6.55
2023-04-14T04:02:15.827Z,6.56
2023-04-14T04:03:15.937Z,6.55
2023-04-14T04:05:15.816Z,6.49
2023-04-14T04:06:15.788Z,6.47
2023-04-14T04:07:15.807Z,6.44
2023-04-14T04:08:15.779Z,6.41
2023-04-14T04:09:15.770Z,6.39
2023-04-14T04:10:15.784Z,6.36
2023-04-14T04:11:15.797Z,6.35
2023-04-14T04:12:15.821Z,6.36
2023-04-14T04:13:15.820Z,6.40
2023-04-14T04:15:15.831Z,6.41
2023-04-14T04:16:15.786Z,6.40
2023-04-14T04:17:15.786Z,6.41
2023-04-14T04:18:15.826Z,6.44
2023-04-14T04:19:15.805Z,6.46
2023-04-14T04:21:15.800Z,6.45
2023-04-14T04:22:15.777Z,6.42
2023-04-14T04:23:15.854Z,6.43
2023-04-14T04:24:15.791Z,6.45
2023-04-14T04:28:15.786Z,6.44
2023-04-14T04:29:15.825Z,6.45
2023-04-14T04:30:15.810Z,6.46
2023-04-14T04:31:15.829Z,6.45
2023-04-14T04:32:15.944Z,6.43
2023-04-14T04:33:15.909Z,6.39
2023-04-14T04:34:15.882Z,6.38
2023-04-14T04:36:15.867Z,6.31
2023-04-14T04:37:15.801Z,6.26
2023-04-14T04:38:15.827Z,6.20
2023-04-14T04:39:15.846Z,6.14
2023-04-14T04:40:15.860Z,6.10
2023-04-14T04:42:15.883Z,6.11
2023-04-14T04:43:15.857Z,6.12
2023-04-14T04:44:15.879Z,6.15
2023-04-14T04:45:15.876Z,6.18
2023-04-14T04:46:15.927Z,6.22
2023-04-14T04:47:15.862Z,6.23
2023-04-14T04:48:15.847Z,6.24
2023-04-14T04:49:15.912Z,6.26
2023-04-14T04:50:17.309Z,6.29
2023-04-14T04:51:15.880Z,6.33
2023-04-14T04:52:15.908Z,6.36
2023-04-14T04:53:15.867Z,6.39
2023-04-14T04:54:15.871Z,6.42
2023-04-14T04:55:15.924Z,6.39
2023-04-14T04:56:15.857Z,6.40
2023-04-14T04:57:15.982Z,6.39
2023-04-14T04:59:15.919Z,6.41
2023-04-14T05:00:15.924Z,6.42
2023-04-14T05:01:15.976Z,6.43
2023-04-14T05:02:15.935Z,6.45
2023-04-14T05:03:15.982Z,6.46
2023-04-14T05:05:15.897Z,6.45
2023-04-14T05:06:15.880Z,6.46
2023-04-14T05:07:15.909Z,6.45
2023-04-14T05:08:15.919Z,6.42
2023-04-14T05:09:15.891Z,6.40
2023-04-14T05:10:15.960Z,6.41
2023-04-14T05:11:15.912Z,6.42
2023-04-14T05:12:15.920Z,6.43
2023-04-14T05:13:15.942Z,6.44
2023-04-14T05:14:15.937Z,6.46
2023-04-14T05:15:15.901Z,6.49
2023-04-14T05:16:16.100Z,6.52
2023-04-14T05:17:15.912Z,6.56
2023-04-14T05:18:19.182Z,6.59
2023-04-14T05:19:15.922Z,6.61
2023-04-14T05:20:15.927Z,6.63
2023-04-14T05:21:15.976Z,6.64
2023-04-14T05:23:15.978Z,6.62
2023-04-14T05:24:15.996Z,6.63
2023-04-14T05:25:15.942Z,6.64
2023-04-14T05:26:38.972Z,6.66
2023-04-14T05:27:15.946Z,6.67
2023-04-14T05:29:15.989Z,6.68
2023-04-14T05:31:16.076Z,6.69
2023-04-14T05:33:15.950Z,6.71
2023-04-14T05:34:16.016Z,6.75
2023-04-14T05:35:16.005Z,6.81
2023-04-14T05:36:15.950Z,6.82
2023-04-14T05:38:15.958Z,6.87
2023-04-14T05:39:16.013Z,6.93
2023-04-14T05:40:15.982Z,6.98
2023-04-14T05:41:16.004Z,7.05
2023-04-14T05:42:16.012Z,7.09
2023-04-14T05:43:16.011Z,7.14
2023-04-14T05:44:16.012Z,7.18
2023-04-14T05:45:16.042Z,7.21
2023-04-14T05:46:16.051Z,7.22
2023-04-14T05:47:16.028Z,7.24
2023-04-14T05:48:16.021Z,7.26
2023-04-14T05:49:16.024Z,7.31
2023-04-14T05:50:16.040Z,7.36
2023-04-14T05:51:16.005Z,7.42
2023-04-14T05:52:16.050Z,7.49
2023-04-14T05:53:16.045Z,7.56
2023-04-14T05:54:16.025Z,7.63
2023-04-14T05:55:19.415Z,7.68
2023-04-14T05:56:16.020Z,7.73
2023-04-14T05:57:16.039Z,7.81
2023-04-14T05:58:16.054Z,7.88
2023-04-14T05:59:16.025Z,7.97
2023-04-14T06:00:16.093Z,8.06
2023-04-14T06:01:16.055Z,8.16
2023-04-14T06:02:16.189Z,8.28
2023-04-14T06:03:16.332Z,8.38
2023-04-14T06:04:16.249Z,8.47
2023-04-14T06:05:16.111Z,8.52
2023-04-14T06:06:16.095Z,8.59
2023-04-14T06:07:16.031Z,8.65
2023-04-14T06:08:16.092Z,8.70
2023-04-14T06:09:16.054Z,8.74
2023-04-14T06:10:16.050Z,8.78
2023-04-14T06:11:16.090Z,8.80
2023-04-14T06:12:16.099Z,8.86
2023-04-14T06:13:16.088Z,8.94
2023-04-14T06:14:16.103Z,9.03
2023-04-14T06:15:16.080Z,9.09
2023-04-14T06:16:16.193Z,9.18
2023-04-14T06:17:16.085Z,9.27
2023-04-14T06:18:16.082Z,9.37
2023-04-14T06:19:16.108Z,9.47
2023-04-14T06:20:16.097Z,9.54
2023-04-14T06:21:16.141Z,9.66
2023-04-14T06:22:16.114Z,9.81
2023-04-14T06:23:16.088Z,9.97
2023-04-14T06:24:16.149Z,10.12
2023-04-14T06:25:16.120Z,10.28
2023-04-14T06:26:16.117Z,10.46
2023-04-14T06:27:16.173Z,10.62
2023-04-14T06:28:16.114Z,10.52
2023-04-14T06:29:16.163Z,10.66
2023-04-14T06:30:16.104Z,10.72
2023-04-14T06:31:16.144Z,10.81
2023-04-14T06:32:19.841Z,10.89
2023-04-14T06:33:16.086Z,11.01
2023-04-14T06:34:16.109Z,11.12
2023-04-14T06:35:29.758Z,11.23
2023-04-14T06:36:16.109Z,11.34
2023-04-14T06:37:16.177Z,11.40
2023-04-14T06:38:16.163Z,11.42
2023-04-14T06:39:16.145Z,11.50
2023-04-14T06:40:16.181Z,11.60
2023-04-14T06:41:16.152Z,11.68
2023-04-14T06:42:16.186Z,11.78
2023-04-14T06:43:16.167Z,11.88
2023-04-14T06:44:16.161Z,11.80
2023-04-14T06:45:16.199Z,11.83
2023-04-14T06:46:16.211Z,11.87
2023-04-14T06:47:16.172Z,11.95
2023-04-14T06:48:16.157Z,12.03
2023-04-14T06:49:16.182Z,12.07
2023-04-14T06:50:16.230Z,12.13
2023-04-14T06:51:16.176Z,12.18
2023-04-14T06:52:16.179Z,12.24
2023-04-14T06:53:16.191Z,12.35
2023-04-14T06:54:16.161Z,12.44
2023-04-14T06:55:16.217Z,12.48
2023-04-14T06:56:16.213Z,12.54
2023-04-14T06:57:16.199Z,12.60
2023-04-14T06:58:16.229Z,12.69
2023-04-14T06:59:16.199Z,12.66
2023-04-14T07:00:16.176Z,12.57
2023-04-14T07:01:16.306Z,12.54
2023-04-14T07:02:16.263Z,12.61
2023-04-14T07:03:16.246Z,12.73
2023-04-14T07:04:16.279Z,12.85
2023-04-14T07:05:16.175Z,12.97
2023-04-14T07:06:16.260Z,12.94
2023-04-14T07:07:16.224Z,12.98
2023-04-14T07:08:16.197Z,13.12
2023-04-14T07:09:19.992Z,13.25
2023-04-14T07:10:16.225Z,13.41
2023-04-14T07:11:16.230Z,13.51
2023-04-14T07:12:16.226Z,13.62
2023-04-14T07:13:16.214Z,13.72
2023-04-14T07:14:16.232Z,13.89
2023-04-14T07:15:16.196Z,14.01
2023-04-14T07:16:16.293Z,14.06
2023-04-14T07:17:16.237Z,14.22
2023-04-14T07:18:16.231Z,14.33
2023-04-14T07:19:16.264Z,14.39
2023-04-14T07:20:16.231Z,14.40
2023-04-14T07:21:16.225Z,14.23
2023-04-14T07:22:16.257Z,14.26
2023-04-14T07:23:16.223Z,14.37
2023-04-14T07:24:16.248Z,14.55
2023-04-14T07:25:16.282Z,14.35
2023-04-14T07:26:16.286Z,14.23
2023-04-14T07:27:16.288Z,14.32
2023-04-14T07:28:16.256Z,14.52
2023-04-14T07:29:16.244Z,14.79
2023-04-14T07:30:16.303Z,15.01
2023-04-14T07:31:16.303Z,15.17
2023-04-14T07:32:16.294Z,15.32
2023-04-14T07:33:16.287Z,15.44
2023-04-14T07:34:16.281Z,15.61
2023-04-14T07:35:16.318Z,15.74
2023-04-14T07:36:16.295Z,15.85
2023-04-14T07:37:16.291Z,15.94
2023-04-14T07:38:16.343Z,16.00
2023-04-14T07:39:16.277Z,15.97
2023-04-14T07:40:16.330Z,15.67
2023-04-14T07:41:16.299Z,15.45
2023-04-14T07:42:16.275Z,15.55
2023-04-14T07:43:16.334Z,15.61
2023-04-14T07:44:16.312Z,15.76
2023-04-14T07:45:16.282Z,15.90
2023-04-14T07:46:20.186Z,15.88
2023-04-14T07:47:16.304Z,15.99
2023-04-14T07:48:16.349Z,16.15
2023-04-14T07:49:16.311Z,16.37
2023-04-14T07:50:18.477Z,16.53
2023-04-14T07:51:16.349Z,16.74
2023-04-14T07:52:16.332Z,16.92
2023-04-14T07:53:16.354Z,17.06
2023-04-14T07:54:16.332Z,17.22
2023-04-14T07:55:16.320Z,17.33
2023-04-14T07:56:16.338Z,17.39
2023-04-14T07:57:16.339Z,17.50
2023-04-14T07:58:16.360Z,17.59
2023-04-14T07:59:16.430Z,17.67
2023-04-14T08:00:16.335Z,17.85
2023-04-14T08:01:16.344Z,17.98
2023-04-14T08:02:16.520Z,18.04
2023-04-14T08:03:16.501Z,18.15
2023-04-14T08:04:16.479Z,18.28
2023-04-14T08:05:16.407Z,18.46
2023-04-14T08:06:16.336Z,18.59
2023-04-14T08:07:16.418Z,18.64
2023-04-14T08:08:16.340Z,18.70
2023-04-14T08:09:16.394Z,18.82
2023-04-14T08:10:16.358Z,18.94
2023-04-14T08:11:16.370Z,19.07
2023-04-14T08:12:16.388Z,19.13
2023-04-14T08:13:16.368Z,19.22
2023-04-14T08:14:16.389Z,19.25
2023-04-14T08:16:16.387Z,19.34
2023-04-14T08:17:16.483Z,19.39
2023-04-14T08:18:16.412Z,19.49
2023-04-14T08:19:16.396Z,19.53
2023-04-14T08:20:16.410Z,19.44
2023-04-14T08:21:16.385Z,19.29
2023-04-14T08:22:16.405Z,19.23
2023-04-14T08:23:20.373Z,19.15
2023-04-14T08:24:16.401Z,19.06
2023-04-14T08:25:16.465Z,19.03
2023-04-14T08:26:16.417Z,18.99
2023-04-14T08:27:16.429Z,18.87
2023-04-14T08:28:16.449Z,18.71
2023-04-14T08:29:16.430Z,18.51
2023-04-14T08:30:16.446Z,18.22
2023-04-14T08:31:16.518Z,17.91
2023-04-14T08:32:16.472Z,17.84
2023-04-14T08:33:16.554Z,17.81
2023-04-14T08:34:21.222Z,17.85
2023-04-14T08:35:37.399Z,17.96
2023-04-14T08:36:16.462Z,18.09
2023-04-14T08:37:16.433Z,18.18
2023-04-14T08:38:16.456Z,18.31
2023-04-14T08:39:16.444Z,18.47
2023-04-14T08:40:16.456Z,18.59
2023-04-14T08:41:16.462Z,18.74
2023-04-14T08:42:16.447Z,18.68
2023-04-14T08:43:16.499Z,18.70
2023-04-14T08:44:16.426Z,18.78
2023-04-14T08:45:16.462Z,18.77
2023-04-14T08:46:16.938Z,18.83
2023-04-14T08:47:16.479Z,18.90
2023-04-14T08:48:16.503Z,18.93
2023-04-14T08:49:16.493Z,19.01
2023-04-14T08:50:16.431Z,19.16
2023-04-14T08:51:16.514Z,19.31
2023-04-14T08:52:16.515Z,19.48
2023-04-14T08:53:16.463Z,19.62
2023-04-14T08:54:16.513Z,19.65
2023-04-14T08:55:16.454Z,19.60
2023-04-14T08:56:16.494Z,19.52
2023-04-14T08:57:16.476Z,19.51
2023-04-14T08:58:16.467Z,19.40
2023-04-14T08:59:16.527Z,19.36
2023-04-14T09:00:20.565Z,19.06
2023-04-14T09:01:16.700Z,19.02
2023-04-14T09:02:16.561Z,19.07
2023-04-14T09:03:16.733Z,19.08
2023-04-14T09:04:16.798Z,18.98
2023-04-14T09:05:16.512Z,18.97
2023-04-14T09:06:16.532Z,19.01
2023-04-14T09:07:16.581Z,19.16
2023-04-14T09:08:16.519Z,19.36
2023-04-14T09:09:16.545Z,19.56
2023-04-14T09:10:16.566Z,19.68
2023-04-14T09:11:16.522Z,19.83
2023-04-14T09:12:16.564Z,20.03
2023-04-14T09:13:16.536Z,20.13
2023-04-14T09:14:16.600Z,20.32
2023-04-14T09:15:16.613Z,20.41
2023-04-14T09:16:16.567Z,20.38
2023-04-14T09:17:16.559Z,20.17
2023-04-14T09:18:16.580Z,20.08
2023-04-14T09:19:16.552Z,19.96
2023-04-14T09:20:34.834Z,19.82
2023-04-14T09:21:37.173Z,19.67
2023-04-14T09:22:16.528Z,19.48
2023-04-14T09:23:16.598Z,19.32
2023-04-14T09:24:16.568Z,19.17
2023-04-14T09:25:16.574Z,18.98
2023-04-14T09:26:16.536Z,18.86
2023-04-14T09:27:16.565Z,18.82
2023-04-14T09:28:16.606Z,18.87
2023-04-14T09:29:16.587Z,18.89
2023-04-14T09:30:16.580Z,19.07
2023-04-14T09:31:16.653Z,19.30
2023-04-14T09:32:16.582Z,19.54
2023-04-14T09:33:16.645Z,19.79
2023-04-14T09:34:16.637Z,20.05
2023-04-14T09:35:16.599Z,20.28
2023-04-14T09:36:16.622Z,20.48
2023-04-14T09:37:20.757Z,20.63
2023-04-14T09:38:16.614Z,20.69
2023-04-14T09:40:16.581Z,20.68
2023-04-14T09:41:16.624Z,20.61
2023-04-14T09:42:16.592Z,20.58
2023-04-14T09:43:16.607Z,20.52
2023-04-14T09:44:16.622Z,20.44
2023-04-14T09:45:16.580Z,20.28
2023-04-14T09:46:16.719Z,20.24
2023-04-14T09:47:16.614Z,20.23
2023-04-14T09:48:16.604Z,19.82
2023-04-14T09:49:16.620Z,19.55
2023-04-14T09:50:16.584Z,19.40
2023-04-14T09:51:16.617Z,19.13
2023-04-14T09:52:16.659Z,18.90
2023-04-14T09:53:16.621Z,18.73
2023-04-14T09:54:16.673Z,18.53
2023-04-14T09:55:16.649Z,18.30
2023-04-14T09:56:16.603Z,18.14
2023-04-14T09:57:16.648Z,18.05
2023-04-14T09:58:16.621Z,17.92
2023-04-14T09:59:16.656Z,17.81
2023-04-14T10:00:16.658Z,17.70
2023-04-14T10:01:16.677Z,17.61
2023-04-14T10:02:16.822Z,17.36
2023-04-14T10:03:16.744Z,17.12
2023-04-14T10:04:16.685Z,16.84
2023-04-14T10:05:16.700Z,16.63
2023-04-14T10:06:16.674Z,16.55
2023-04-14T10:08:16.634Z,16.59
2023-04-14T10:09:16.637Z,16.56
2023-04-14T10:10:16.689Z,16.53
2023-04-14T10:11:16.641Z,16.55
2023-04-14T10:12:16.673Z,16.56
2023-04-14T10:13:16.686Z,16.55
2023-04-14T10:14:20.972Z,16.56
2023-04-14T10:15:16.714Z,16.57
2023-04-14T10:16:16.715Z,16.59
2023-04-14T10:17:16.670Z,16.60
2023-04-14T10:18:16.776Z,16.63
2023-04-14T10:19:16.704Z,16.65
2023-04-14T10:20:16.671Z,16.68
2023-04-14T10:21:16.724Z,16.71
2023-04-14T10:22:16.677Z,16.73
2023-04-14T10:23:16.740Z,16.70
2023-04-14T10:24:16.717Z,16.69
2023-04-14T10:25:16.728Z,16.64
2023-04-14T10:26:16.718Z,16.49
2023-04-14T10:27:16.733Z,16.40
2023-04-14T10:29:16.694Z,16.41
2023-04-14T10:30:16.706Z,16.42
2023-04-14T10:31:16.795Z,16.46
2023-04-14T10:32:16.694Z,16.48
2023-04-14T10:33:16.730Z,16.47
2023-04-14T10:35:16.744Z,16.46
2023-04-14T10:36:16.755Z,16.45
2023-04-14T10:37:16.732Z,16.40
2023-04-14T10:38:16.754Z,16.38
2023-04-14T10:39:16.800Z,16.35
2023-04-14T10:40:16.755Z,16.33
2023-04-14T10:41:16.744Z,16.30
2023-04-14T10:44:16.806Z,16.28
2023-04-14T10:45:16.758Z,16.27
2023-04-14T10:46:18.711Z,16.23
2023-04-14T10:47:16.762Z,16.15
2023-04-14T10:48:16.772Z,16.07
2023-04-14T10:49:16.801Z,16.01
2023-04-14T10:50:16.789Z,15.99
2023-04-14T10:52:16.865Z,15.96
2023-04-14T10:53:16.763Z,15.95
2023-04-14T10:54:16.807Z,15.97
2023-04-14T10:55:16.824Z,16.00
2023-04-14T10:56:16.772Z,16.02
2023-04-14T10:57:16.831Z,16.04
2023-04-14T10:58:16.775Z,16.07
2023-04-14T10:59:16.811Z,16.04
2023-04-14T11:00:16.904Z,16.03
2023-04-14T11:01:16.822Z,16.01
2023-04-14T11:02:16.909Z,16.03
2023-04-14T11:04:16.999Z,15.99
2023-04-14T11:05:16.861Z,15.96
2023-04-14T11:06:16.818Z,15.77
2023-04-14T11:07:16.796Z,15.47
2023-04-14T11:08:16.858Z,15.22
2023-04-14T11:09:16.827Z,14.89
2023-04-14T11:10:16.859Z,14.74
2023-04-14T11:11:16.847Z,14.61
2023-04-14T11:13:17.773Z,14.65
2023-04-14T11:14:16.813Z,14.63
2023-04-14T11:15:16.834Z,14.34
2023-04-14T11:16:16.876Z,14.25
2023-04-14T11:17:16.831Z,14.05
2023-04-14T11:18:16.945Z,13.86
2023-04-14T11:19:16.891Z,13.70
2023-04-14T11:20:16.924Z,13.63
2023-04-14T11:21:16.883Z,13.55
2023-04-14T11:22:16.858Z,13.50
2023-04-14T11:23:16.821Z,13.49
2023-04-14T11:24:16.871Z,13.69
2023-04-14T11:25:16.871Z,13.94
2023-04-14T11:26:16.911Z,14.16
2023-04-14T11:27:16.847Z,14.13
2023-04-14T11:28:21.389Z,14.19
2023-04-14T11:29:16.890Z,14.28
2023-04-14T11:30:16.954Z,14.31
2023-04-14T11:31:16.936Z,14.33
2023-04-14T11:32:17.000Z,14.36
2023-04-14T11:34:16.925Z,14.41
2023-04-14T11:35:16.859Z,14.55
2023-04-14T11:36:16.885Z,14.70
2023-04-14T11:37:16.928Z,14.90
2023-04-14T11:38:16.895Z,15.08
2023-04-14T11:39:16.903Z,15.23
2023-04-14T11:40:17.029Z,15.26
2023-04-14T11:41:16.889Z,15.30
2023-04-14T11:42:16.918Z,15.37
2023-04-14T11:43:16.911Z,15.56
2023-04-14T11:44:16.894Z,15.73
2023-04-14T11:45:16.939Z,15.92
2023-04-14T11:46:16.949Z,15.97
2023-04-14T11:47:16.904Z,15.86
2023-04-14T11:48:16.954Z,15.84
2023-04-14T11:49:16.899Z,15.56
2023-04-14T11:50:16.967Z,15.22
2023-04-14T11:51:16.914Z,14.84
2023-04-14T11:52:16.928Z,14.52
2023-04-14T11:53:16.980Z,14.51
2023-04-14T11:54:17.009Z,14.45
2023-04-14T11:55:16.976Z,14.49
2023-04-14T11:56:16.933Z,14.32
2023-04-14T11:57:16.956Z,14.19
2023-04-14T11:58:16.984Z,14.16
2023-04-14T11:59:16.950Z,14.18
2023-04-14T12:00:16.939Z,14.27
2023-04-14T12:01:16.965Z,14.39
2023-04-14T12:02:17.050Z,14.57
2023-04-14T12:03:17.299Z,14.68
2023-04-14T12:04:17.144Z,14.85
2023-04-14T12:05:21.762Z,14.98
2023-04-14T12:06:17.011Z,15.14
2023-04-14T12:07:16.985Z,15.26
2023-04-14T12:08:16.959Z,15.38
2023-04-14T12:09:16.976Z,15.54
2023-04-14T12:10:16.979Z,15.66
2023-04-14T12:11:17.008Z,15.75
2023-04-14T12:12:17.317Z,15.83
2023-04-14T12:13:16.965Z,15.97
2023-04-14T12:14:17.005Z,16.16
2023-04-14T12:15:16.976Z,16.35
2023-04-14T12:16:17.111Z,16.53
2023-04-14T12:17:17.057Z,16.62
2023-04-14T12:18:17.047Z,16.73
2023-04-14T12:19:17.016Z,16.86
2023-04-14T12:20:17.006Z,16.83
2023-04-14T12:21:17.028Z,16.54
2023-04-14T12:22:17.313Z,16.46
2023-04-14T12:23:17.018Z,16.54
2023-04-14T12:24:17.087Z,16.68
2023-04-14T12:25:17.017Z,16.82
2023-04-14T12:26:17.047Z,16.87
2023-04-14T12:27:17.063Z,16.96
2023-04-14T12:28:17.017Z,16.97
2023-04-14T12:29:17.002Z,17.04
2023-04-14T12:30:17.023Z,17.10
2023-04-14T12:31:17.065Z,17.18
2023-04-14T12:32:17.070Z,17.23
2023-04-14T12:33:17.054Z,17.29
2023-04-14T12:34:17.018Z,17.28
2023-04-14T12:35:17.050Z,17.24
2023-04-14T12:36:17.013Z,17.23
2023-04-14T12:37:17.048Z,17.24
2023-04-14T12:38:17.100Z,17.12
2023-04-14T12:39:17.055Z,16.88
2023-04-14T12:40:17.088Z,16.73
2023-04-14T12:41:17.032Z,16.63
2023-04-14T12:42:21.879Z,16.62
2023-04-14T12:43:17.126Z,16.61
2023-04-14T12:44:17.046Z,16.59
2023-04-14T12:45:17.086Z,16.64
2023-04-14T12:46:17.130Z,16.73
2023-04-14T12:47:17.121Z,16.83
2023-04-14T12:48:17.096Z,16.94
2023-04-14T12:49:17.099Z,17.02
2023-04-14T12:50:17.058Z,17.16
2023-04-14T12:51:17.127Z,17.26
2023-04-14T12:52:17.089Z,17.31
2023-04-14T12:53:17.113Z,17.39
2023-04-14T12:54:17.090Z,17.44
2023-04-14T12:55:17.113Z,17.38
2023-04-14T12:56:17.140Z,17.30
2023-04-14T12:57:17.143Z,17.25
2023-04-14T12:58:17.105Z,17.16
2023-04-14T12:59:17.137Z,17.19
2023-04-14T13:00:17.123Z,17.24
2023-04-14T13:01:17.271Z,17.26
2023-04-14T13:02:17.230Z,17.33
2023-04-14T13:03:17.260Z,17.37
2023-04-14T13:04:17.351Z,17.38
2023-04-14T13:05:17.141Z,17.41
2023-04-14T13:06:17.140Z,17.36
2023-04-14T13:07:17.187Z,17.16
2023-04-14T13:08:17.127Z,17.13
2023-04-14T13:09:17.161Z,17.03
2023-04-14T13:10:17.157Z,17.02
2023-04-14T13:11:17.133Z,17.07
2023-04-14T13:12:17.175Z,16.98
2023-04-14T13:13:17.128Z,16.76
2023-04-14T13:14:17.193Z,16.46
2023-04-14T13:16:00.262Z,16.20
2023-04-14T13:16:18.695Z,16.10
2023-04-14T13:18:17.163Z,16.21
2023-04-14T13:19:22.144Z,16.30
2023-04-14T13:20:17.165Z,16.41
2023-04-14T13:21:17.240Z,16.21
2023-04-14T13:22:17.194Z,16.13
2023-04-14T13:23:17.160Z,16.16
2023-04-14T13:24:17.299Z,16.29
2023-04-14T13:25:17.203Z,16.23
2023-04-14T13:26:17.169Z,15.77
2023-04-14T13:27:17.197Z,15.21
2023-04-14T13:28:17.211Z,14.89
2023-04-14T13:29:17.164Z,14.78
2023-04-14T13:30:17.243Z,14.80
2023-04-14T13:31:17.240Z,14.96
2023-04-14T13:32:17.306Z,15.01
2023-04-14T13:33:17.217Z,15.11
2023-04-14T13:34:17.192Z,15.23
2023-04-14T13:35:17.240Z,15.36
2023-04-14T13:36:17.226Z,15.46
2023-04-14T13:37:17.221Z,15.44
2023-04-14T13:38:17.247Z,15.60
2023-04-14T13:39:17.197Z,15.81
2023-04-14T13:40:17.210Z,15.97
2023-04-14T13:42:17.234Z,16.03
2023-04-14T13:43:17.255Z,15.95
2023-04-14T13:44:17.219Z,15.97
2023-04-14T13:45:17.197Z,15.96
2023-04-14T13:46:19.013Z,15.98
2023-04-14T13:47:17.213Z,15.84
2023-04-14T13:48:17.277Z,15.90
2023-04-14T13:49:17.266Z,15.70
2023-04-14T13:50:17.239Z,15.63
2023-04-14T13:51:17.268Z,15.39
2023-04-14T13:52:17.247Z,15.07
2023-04-14T13:53:17.340Z,14.92
2023-04-14T13:54:17.285Z,14.95
2023-04-14T13:55:17.255Z,15.03
2023-04-14T13:56:22.275Z,15.21
2023-04-14T13:57:17.241Z,15.43
2023-04-14T13:58:17.252Z,15.60
2023-04-14T13:59:17.303Z,15.79
2023-04-14T14:00:17.244Z,15.89
2023-04-14T14:01:17.272Z,15.96
2023-04-14T14:02:17.534Z,15.99
2023-04-14T14:03:17.431Z,16.04
2023-04-14T14:04:17.369Z,16.02
2023-04-14T14:05:17.266Z,16.00
2023-04-14T14:06:17.259Z,15.96
2023-04-14T14:07:17.296Z,15.99
2023-04-14T14:08:17.266Z,16.00
2023-04-14T14:09:17.297Z,16.07
2023-04-14T14:10:17.320Z,16.12
2023-04-14T14:11:17.260Z,16.11
2023-04-14T14:12:17.336Z,16.15
2023-04-14T14:13:18.537Z,16.18
2023-04-14T14:14:17.282Z,16.11
2023-04-14T14:15:17.347Z,15.82
2023-04-14T14:16:33.257Z,15.73